Time;durP1;ratioP1;P1;durP2;ratioP2;P2;SDS_P1;SDS_P2;PMS_P1;PMS_P2;Temp;Humidity;BMP_temperature;BMP_pressure;BME280_temperature;BME280_humidity;BME280_pressure;Samples;Min_cycle;Max_cycle;Signal;HPM_P1;HPM_P2
2023/10/07 00:01:24;;;;;;;11.53;5.23;;;11.60;99.90;;;;;;5052952;28;21236;-73
2023/10/07 00:03:53;;;;;;;12.57;5.97;;;11.70;99.90;;;;;;5035476;28;20438;-73
2023/10/07 00:06:27;;;;;;;7.57;4.37;;;11.60;99.90;;;;;;5051476;28;20448;-73
2023/10/07 00:08:53;;;;;;;7.53;4.03;;;11.40;99.90;;;;;;5053006;28;20422;-73
2023/10/07 00:11:19;;;;;;;12.30;5.90;;;11.30;99.90;;;;;;5052845;28;20418;-73
2023/10/07 00:13:46;;;;;;;9.90;5.33;;;11.10;99.90;;;;;;5051366;28;20623;-73
2023/10/07 00:16:14;;;;;;;9.43;4.60;;;10.90;99.90;;;;;;5052694;28;21012;-73
2023/10/07 00:18:40;;;;;;;10.63;5.20;;;10.80;99.90;;;;;;5052689;28;20508;-74
2023/10/07 00:21:13;;;;;;;12.13;5.23;;;10.70;99.90;;;;;;5052712;28;20437;-73
2023/10/07 00:23:38;;;;;;;11.00;4.57;;;10.60;99.90;;;;;;5051571;28;20428;-73
2023/10/07 00:26:09;;;;;;;10.13;4.50;;;10.40;99.90;;;;;;5052542;28;20517;-74
2023/10/07 00:28:38;;;;;;;10.10;4.50;;;10.50;99.90;;;;;;5052689;28;20187;-73
2023/10/07 00:31:12;;;;;;;19.93;5.93;;;10.50;99.90;;;;;;5052554;28;20433;-73
2023/10/07 00:38:59;;;;;;;12.07;5.63;;;10.20;99.90;;;;;;5051551;28;20412;-73
2023/10/07 00:41:39;;;;;;;8.30;4.60;;;10.10;99.90;;;;;;5051111;28;20420;-73
2023/10/07 00:44:26;;;;;;;10.73;4.63;;;10.00;99.90;;;;;;5052295;28;20413;-73
2023/10/07 00:49:39;;;;;;;12.90;3.80;;;9.90;99.90;;;;;;5052348;28;20955;-73
2023/10/07 00:52:11;;;;;;;10.90;4.70;;;9.90;99.90;;;;;;5050904;28;20429;-73
2023/10/07 00:55:08;;;;;;;11.70;4.90;;;9.80;99.90;;;;;;5051963;28;20464;-73
2023/10/07 00:59:57;;;;;;;9.40;4.57;;;9.80;99.90;;;;;;5051904;28;20810;-73
2023/10/07 01:02:33;;;;;;;12.60;5.63;;;9.80;99.90;;;;;;5050451;28;20446;-73
2023/10/07 01:05:00;;;;;;;10.10;4.27;;;9.80;99.90;;;;;;5051848;28;20535;-73
2023/10/07 01:07:31;;;;;;;11.63;5.00;;;9.80;99.90;;;;;;5050742;28;20418;-73
2023/10/07 01:12:38;;;;;;;10.27;5.57;;;9.60;99.90;;;;;;5050668;28;20452;-73
2023/10/07 01:15:17;;;;;;;11.77;5.20;;;9.60;99.90;;;;;;5051594;28;20477;-73
2023/10/07 01:17:43;;;;;;;10.80;5.30;;;9.60;99.90;;;;;;5051579;28;20909;-73
2023/10/07 01:20:10;;;;;;;12.00;5.40;;;9.70;99.90;;;;;;5051415;28;21004;-73
2023/10/07 01:22:36;;;;;;;13.90;5.27;;;9.60;99.90;;;;;;5050050;28;20421;-72
2023/10/07 01:25:09;;;;;;;11.93;6.20;;;9.60;99.90;;;;;;5051312;28;20961;-73
2023/10/07 01:27:42;;;;;;;9.73;5.47;;;9.60;99.90;;;;;;5050193;28;20182;-73
2023/10/07 01:30:17;;;;;;;19.23;4.70;;;9.50;99.90;;;;;;5050119;28;20785;-73
2023/10/07 01:32:54;;;;;;;11.00;4.90;;;9.50;99.90;;;;;;5051339;28;20434;-73
2023/10/07 01:35:32;;;;;;;9.10;4.40;;;9.40;99.90;;;;;;5051035;28;20471;-73
2023/10/07 01:38:07;;;;;;;10.60;5.10;;;9.40;99.90;;;;;;5049742;28;20514;-73
2023/10/07 01:40:55;;;;;;;15.13;5.50;;;9.30;99.90;;;;;;5051044;28;20896;-73
2023/10/07 01:43:21;;;;;;;9.97;4.60;;;9.30;99.90;;;;;;5049647;28;21008;-74
2023/10/07 01:45:49;;;;;;;11.13;4.47;;;9.30;99.90;;;;;;5050966;28;20439;-73
2023/10/07 01:48:17;;;;;;;10.10;5.00;;;9.30;99.90;;;;;;5050869;28;20435;-73
2023/10/07 01:50:44;;;;;;;10.30;5.17;;;9.20;99.90;;;;;;5049617;28;20422;-73
2023/10/07 01:53:16;;;;;;;9.17;4.50;;;9.10;99.90;;;;;;5050841;28;20932;-73
2023/10/07 01:55:42;;;;;;;11.20;5.07;;;9.10;99.90;;;;;;5050730;28;20928;-73
2023/10/07 01:58:13;;;;;;;8.83;4.30;;;9.00;99.90;;;;;;5050665;28;20423;-72
2023/10/07 02:00:51;;;;;;;9.40;4.80;;;8.90;99.90;;;;;;5049338;28;20495;-73
2023/10/07 02:03:23;;;;;;;9.77;4.00;;;8.90;99.90;;;;;;5050659;28;20782;-72
2023/10/07 02:05:49;;;;;;;9.83;4.37;;;9.10;99.90;;;;;;5050686;28;20435;-72
2023/10/07 02:08:21;;;;;;;8.17;4.00;;;9.30;99.90;;;;;;5050536;28;20507;-73
2023/10/07 02:10:59;;;;;;;10.50;5.00;;;9.50;99.90;;;;;;5050521;28;20425;-74
2023/10/07 02:13:29;;;;;;;9.73;4.40;;;9.70;99.90;;;;;;5048997;28;20540;-73
2023/10/07 02:15:55;;;;;;;8.03;4.10;;;9.80;99.90;;;;;;5049261;28;20443;-73
2023/10/07 02:18:22;;;;;;;8.20;3.80;;;10.00;99.90;;;;;;5050432;28;20497;-73
2023/10/07 02:23:43;;;;;;;9.97;4.30;;;10.20;99.90;;;;;;5050313;28;20404;-73
2023/10/07 02:26:19;;;;;;;8.73;4.20;;;10.30;99.90;;;;;;5050556;28;20975;-73
2023/10/07 02:28:50;;;;;;;7.80;4.00;;;10.30;99.90;;;;;;5050313;28;20849;-73
2023/10/07 02:31:18;;;;;;;10.70;4.60;;;10.30;99.90;;;;;;5050327;28;20427;-73
2023/10/07 02:33:45;;;;;;;12.97;4.83;;;10.20;99.90;;;;;;5048832;28;20474;-73
2023/10/07 02:36:27;;;;;;;11.33;5.23;;;10.30;99.90;;;;;;5048607;28;20553;-73
2023/10/07 02:38:54;;;;;;;10.50;4.20;;;10.20;99.90;;;;;;5048929;28;20413;-73
2023/10/07 02:41:20;;;;;;;9.00;4.20;;;10.00;99.90;;;;;;5050147;28;20419;-73
2023/10/07 02:43:48;;;;;;;8.67;3.93;;;9.90;99.90;;;;;;5050014;28;20920;-73
2023/10/07 02:49:14;;;;;;;9.93;4.17;;;9.40;99.90;;;;;;5053472;28;20426;-73
2023/10/07 02:51:45;;;;;;;8.30;4.60;;;9.30;99.90;;;;;;5049907;28;20434;-73
2023/10/07 02:56:44;;;;;;;13.70;4.80;;;9.20;99.90;;;;;;5049972;28;20436;-73
2023/10/07 02:59:27;;;;;;;10.80;4.17;;;9.20;99.90;;;;;;5049320;28;20507;-73
2023/10/07 03:02:37;;;;;;;10.50;4.50;;;9.20;99.90;;;;;;5049675;28;20439;-73
2023/10/07 03:05:14;;;;;;;9.23;5.43;;;9.20;99.90;;;;;;5050386;28;20439;-73
2023/10/07 03:08:01;;;;;;;8.80;4.40;;;9.20;99.90;;;;;;5048762;28;20468;-73
2023/10/07 03:10:37;;;;;;;12.73;4.80;;;9.10;99.90;;;;;;5049992;28;20461;-74
2023/10/07 03:13:02;;;;;;;8.13;3.70;;;9.10;99.90;;;;;;5049703;28;20506;-73
2023/10/07 03:16:09;;;;;;;8.60;4.80;;;9.10;99.90;;;;;;5048155;28;20850;-73
2023/10/07 03:18:24;;;;;;;11.10;4.30;;;9.10;99.90;;;;;;5049573;28;20291;-73
2023/10/07 03:23:48;;;;;;;9.90;5.30;;;8.90;99.90;;;;;;5048069;28;20427;-74
2023/10/07 03:26:23;;;;;;;10.80;5.83;;;8.90;99.90;;;;;;5049660;28;20427;-73
2023/10/07 03:28:53;;;;;;;8.47;4.43;;;8.90;99.90;;;;;;5049631;28;21022;-73
2023/10/07 03:31:33;;;;;;;9.37;4.10;;;8.60;99.90;;;;;;5049523;28;20885;-73
2023/10/07 03:33:58;;;;;;;11.07;4.63;;;8.40;99.90;;;;;;5049510;28;20898;-73
2023/10/07 03:36:37;;;;;;;12.73;4.90;;;8.30;99.90;;;;;;5049287;28;20431;-73
2023/10/07 03:41:35;;;;;;;8.07;3.80;;;8.60;99.90;;;;;;5049670;28;20448;-73
2023/10/07 03:44:02;;;;;;;9.70;4.80;;;8.90;99.90;;;;;;5049572;28;20415;-72
2023/10/07 03:46:27;;;;;;;7.73;3.50;;;9.10;99.90;;;;;;5048170;28;20527;-72
2023/10/07 03:48:55;;;;;;;7.80;4.10;;;9.20;99.90;;;;;;5048202;28;20560;-73
2023/10/07 03:51:22;;;;;;;7.57;3.53;;;9.40;99.90;;;;;;5049449;28;20310;-72
2023/10/07 03:53:51;;;;;;;14.83;4.73;;;9.50;99.90;;;;;;5047900;28;20557;-73
2023/10/07 03:56:20;;;;;;;8.63;3.93;;;9.50;99.90;;;;;;5047860;28;20448;-73
2023/10/07 03:58:46;;;;;;;8.97;4.47;;;9.50;99.90;;;;;;5048334;28;20417;-73
2023/10/07 04:01:18;;;;;;;10.40;3.97;;;9.40;99.90;;;;;;5049554;28;20437;-74
2023/10/07 04:03:49;;;;;;;7.27;3.93;;;9.40;99.90;;;;;;5048319;28;20431;-74
2023/10/07 04:06:19;;;;;;;11.83;4.33;;;9.50;99.90;;;;;;5048571;28;20447;-73
2023/10/07 04:08:52;;;;;;;9.70;4.37;;;9.00;99.90;;;;;;5050030;28;20424;-73
2023/10/07 04:11:19;;;;;;;5.87;3.80;;;9.00;99.90;;;;;;5050210;28;20434;-74
2023/10/07 04:13:46;;;;;;;11.30;4.43;;;8.90;99.90;;;;;;5053512;28;20458;-74
2023/10/07 04:16:24;;;;;;;10.43;4.17;;;8.80;99.90;;;;;;5053053;28;20438;-74
2023/10/07 04:18:51;;;;;;;13.10;5.00;;;8.80;99.90;;;;;;5053115;28;20498;-74
2023/10/07 04:21:17;;;;;;;8.57;4.10;;;8.70;99.90;;;;;;5053136;28;20414;-73
2023/10/07 04:23:44;;;;;;;9.07;4.23;;;8.70;99.90;;;;;;5053148;28;20506;-74
2023/10/07 04:26:11;;;;;;;8.33;4.50;;;8.80;99.90;;;;;;5053271;28;20232;-73
2023/10/07 04:28:39;;;;;;;8.23;4.13;;;8.70;99.90;;;;;;5051857;28;20510;-74
2023/10/07 04:31:10;;;;;;;8.07;3.70;;;8.60;99.90;;;;;;5052189;28;20415;-74
2023/10/07 04:34:02;;;;;;;8.03;3.27;;;8.60;99.90;;;;;;5052005;28;20528;-74
2023/10/07 04:36:33;;;;;;;9.90;4.60;;;8.60;99.90;;;;;;5051846;28;20440;-74
2023/10/07 04:39:08;;;;;;;12.23;4.57;;;8.50;99.90;;;;;;5052141;28;20916;-73
2023/10/07 04:41:36;;;;;;;7.30;4.23;;;8.50;99.90;;;;;;5053201;28;20418;-73
2023/10/07 04:44:20;;;;;;;12.70;5.00;;;8.60;99.90;;;;;;5053073;28;20464;-73
2023/10/07 04:46:56;;;;;;;9.30;3.87;;;8.40;99.90;;;;;;5052835;28;20836;-74
2023/10/07 04:49:26;;;;;;;16.70;4.80;;;8.10;99.90;;;;;;5051226;28;20421;-73
2023/10/07 04:51:57;;;;;;;9.63;4.60;;;8.00;99.90;;;;;;5052589;28;20504;-73
2023/10/07 04:54:23;;;;;;;12.63;3.80;;;8.00;99.90;;;;;;5034943;28;21044;-73
2023/10/07 04:57:00;;;;;;;8.20;4.20;;;8.10;99.90;;;;;;5052196;28;20511;-73
2023/10/07 04:59:26;;;;;;;9.30;4.20;;;8.20;99.90;;;;;;5051005;28;20174;-73
2023/10/07 05:02:01;;;;;;;8.50;4.57;;;8.30;99.90;;;;;;5050503;28;20442;-73
2023/10/07 05:04:28;;;;;;;11.17;4.70;;;8.30;99.90;;;;;;5051966;28;20418;-73
2023/10/07 05:06:54;;;;;;;9.60;4.73;;;8.30;99.90;;;;;;5051931;28;20460;-73
2023/10/07 05:09:21;;;;;;;11.50;4.40;;;8.30;99.90;;;;;;5050597;28;20513;-73
2023/10/07 05:11:47;;;;;;;8.63;4.17;;;8.30;99.90;;;;;;5052132;28;20795;-73
2023/10/07 05:14:17;;;;;;;7.97;4.30;;;8.30;99.90;;;;;;5050477;28;20842;-73
2023/10/07 05:16:46;;;;;;;9.03;4.17;;;8.30;99.90;;;;;;5051563;28;20947;-73
2023/10/07 05:19:19;;;;;;;9.00;3.90;;;8.20;99.90;;;;;;5050306;28;20931;-72
2023/10/07 05:22:00;;;;;;;8.47;4.10;;;8.20;99.90;;;;;;5051382;28;20785;-73
2023/10/07 05:24:28;;;;;;;11.03;4.20;;;8.20;99.90;;;;;;5050359;28;20430;-73
2023/10/07 05:26:59;;;;;;;9.33;4.33;;;8.30;99.90;;;;;;5051479;28;20445;-73
2023/10/07 05:29:26;;;;;;;10.90;4.60;;;8.10;99.90;;;;;;5051451;28;20791;-73
2023/10/07 05:31:51;;;;;;;7.93;3.50;;;8.20;99.90;;;;;;5051381;28;20415;-73
2023/10/07 05:34:18;;;;;;;10.73;4.70;;;8.20;99.90;;;;;;5049750;28;20470;-73
2023/10/07 05:36:44;;;;;;;8.20;4.10;;;8.20;99.90;;;;;;5051265;28;20447;-73
2023/10/07 05:39:13;;;;;;;11.37;4.37;;;8.20;99.90;;;;;;5049758;28;20417;-72
2023/10/07 05:41:41;;;;;;;12.83;5.17;;;8.10;99.90;;;;;;5049979;28;20795;-72
2023/10/07 05:44:09;;;;;;;10.73;4.10;;;8.00;99.90;;;;;;5049768;28;21300;-72
2023/10/07 05:46:35;;;;;;;9.87;4.50;;;8.00;99.90;;;;;;5050979;28;20964;-72
2023/10/07 05:49:01;;;;;;;12.03;4.60;;;8.00;99.90;;;;;;5049783;28;20423;-73
2023/10/07 05:51:26;;;;;;;14.90;4.27;;;8.00;99.90;;;;;;5049549;28;20853;-72
2023/10/07 05:53:52;;;;;;;10.97;4.70;;;8.10;99.90;;;;;;5051049;28;20289;-72
2023/10/07 05:56:18;;;;;;;8.17;4.23;;;8.10;99.90;;;;;;5050884;28;20204;-72
2023/10/07 05:58:45;;;;;;;11.23;5.50;;;8.20;99.90;;;;;;5050969;28;20668;-73
2023/10/07 06:01:14;;;;;;;13.03;5.00;;;8.20;99.90;;;;;;5050757;28;20286;-72
2023/10/07 06:03:42;;;;;;;7.10;3.97;;;8.20;99.90;;;;;;5050855;28;20448;-73
2023/10/07 06:06:09;;;;;;;8.10;4.40;;;8.30;99.90;;;;;;5050767;28;20521;-73
2023/10/07 06:08:34;;;;;;;9.10;4.53;;;8.30;99.90;;;;;;5049297;28;20416;-73
2023/10/07 06:11:01;;;;;;;8.20;3.77;;;8.30;99.90;;;;;;5049304;28;20934;-72
2023/10/07 06:13:28;;;;;;;11.53;4.17;;;8.20;99.90;;;;;;5049362;28;20176;-72
2023/10/07 06:15:59;;;;;;;11.50;4.27;;;8.20;99.90;;;;;;5050439;28;21024;-72
2023/10/07 06:18:25;;;;;;;7.63;4.67;;;8.20;99.90;;;;;;5049114;28;20469;-73
2023/10/07 06:20:51;;;;;;;13.07;5.30;;;8.30;99.90;;;;;;5048935;28;20416;-72
2023/10/07 06:23:24;;;;;;;8.20;4.50;;;8.30;99.90;;;;;;5049020;28;20451;-72
2023/10/07 06:25:51;;;;;;;8.90;4.53;;;8.40;99.90;;;;;;5050469;28;20827;-72
2023/10/07 06:30:56;;;;;;;9.33;4.10;;;8.50;99.90;;;;;;5049302;28;20426;-73
2023/10/07 06:33:23;;;;;;;8.87;4.50;;;8.60;99.90;;;;;;5048318;28;20461;-73
2023/10/07 06:35:51;;;;;;;10.20;4.57;;;8.80;99.90;;;;;;5048882;28;20530;-72
2023/10/07 06:38:20;;;;;;;8.20;4.00;;;8.90;99.90;;;;;;5032874;28;20406;-72
2023/10/07 06:40:45;;;;;;;14.30;5.60;;;9.00;99.90;;;;;;5048919;28;20419;-72
2023/10/07 06:43:14;;;;;;;14.97;4.13;;;9.00;99.90;;;;;;5048881;28;20425;-73
2023/10/07 06:45:44;;;;;;;9.23;4.73;;;8.90;99.90;;;;;;5048783;28;20200;-72
2023/10/07 06:48:11;;;;;;;10.83;4.90;;;8.80;99.90;;;;;;5049042;28;20425;-73
2023/10/07 06:50:41;;;;;;;12.60;5.33;;;8.80;99.90;;;;;;5046859;28;20452;-72
2023/10/07 06:53:11;;;;;;;10.37;4.57;;;8.70;99.90;;;;;;5047994;28;20414;-73
2023/10/07 06:55:44;;;;;;;14.07;5.20;;;8.70;99.90;;;;;;5046093;28;20480;-72
2023/10/07 06:58:11;;;;;;;12.50;5.80;;;8.70;99.90;;;;;;5046426;28;20502;-72
2023/10/07 07:01:09;;;;;;;11.50;5.33;;;8.90;99.90;;;;;;5047458;28;20427;-73
2023/10/07 07:03:26;;;;;;;10.50;5.43;;;8.70;99.90;;;;;;5047276;28;20430;-72
2023/10/07 07:05:52;;;;;;;10.73;5.70;;;8.80;99.90;;;;;;5047227;28;20458;-74
2023/10/07 07:08:24;;;;;;;10.07;5.23;;;8.90;99.90;;;;;;5045847;28;20419;-73
2023/10/07 07:10:55;;;;;;;10.30;5.10;;;8.90;99.90;;;;;;5047316;28;20415;-72
2023/10/07 07:13:25;;;;;;;10.25;4.95;;;9.00;99.90;;;;;;5047147;28;20423;-72
2023/10/07 07:15:57;;;;;;;15.23;5.23;;;9.10;99.90;;;;;;5047969;28;20533;-73
2023/10/07 07:18:26;;;;;;;9.90;4.20;;;9.20;99.90;;;;;;5046284;28;20453;-73
2023/10/07 07:21:14;;;;;;;10.83;5.00;;;9.20;99.90;;;;;;5029025;28;20745;-73
2023/10/07 07:23:49;;;;;;;11.57;5.30;;;9.40;99.90;;;;;;5046948;28;20447;-72
2023/10/07 07:26:18;;;;;;;11.20;5.63;;;9.50;99.90;;;;;;5045208;28;20455;-73
2023/10/07 07:28:44;;;;;;;7.57;4.50;;;9.60;99.90;;;;;;5045832;28;20429;-72
2023/10/07 07:31:11;;;;;;;13.43;5.50;;;9.80;99.90;;;;;;5047263;28;20412;-73
2023/10/07 07:33:38;;;;;;;8.77;4.40;;;10.00;99.90;;;;;;5045888;28;20694;-73
2023/10/07 07:38:51;;;;;;;13.80;5.43;;;10.30;99.90;;;;;;5047497;28;20462;-73
2023/10/07 07:41:26;;;;;;;12.73;5.20;;;10.40;99.90;;;;;;5047015;28;20427;-73
2023/10/07 07:43:53;;;;;;;10.13;4.57;;;10.50;99.90;;;;;;5046242;28;20616;-73
2023/10/07 07:46:46;;;;;;;8.10;3.90;;;10.60;99.90;;;;;;5050296;28;20441;-73
2023/10/07 07:49:12;;;;;;;9.37;4.60;;;10.90;99.90;;;;;;5049540;28;20465;-72
2023/10/07 07:51:37;;;;;;;9.83;5.10;;;11.10;99.90;;;;;;5049027;28;20457;-73
2023/10/07 07:54:06;;;;;;;8.90;4.40;;;11.30;99.90;;;;;;5049383;28;20207;-73
2023/10/07 07:56:32;;;;;;;9.53;5.17;;;11.60;99.90;;;;;;5049518;28;20211;-73
2023/10/07 07:58:58;;;;;;;12.60;4.57;;;11.80;99.90;;;;;;5051172;28;20906;-73
2023/10/07 08:01:31;;;;;;;10.33;4.97;;;12.00;99.90;;;;;;5051281;28;20447;-73
2023/10/07 08:04:09;;;;;;;8.20;4.20;;;12.20;99.90;;;;;;5051517;28;20457;-73
2023/10/07 08:06:35;;;;;;;9.63;4.10;;;12.60;99.90;;;;;;5051408;28;20441;-73
2023/10/07 08:09:02;;;;;;;8.33;4.73;;;13.00;99.90;;;;;;5051058;28;20456;-73
2023/10/07 08:11:34;;;;;;;15.33;5.10;;;13.30;99.90;;;;;;5050935;28;20540;-73
2023/10/07 08:14:09;;;;;;;9.83;4.63;;;13.70;99.90;;;;;;5050464;28;20557;-73
2023/10/07 08:16:46;;;;;;;13.67;5.30;;;14.00;99.90;;;;;;5050387;28;20457;-74
2023/10/07 08:19:13;;;;;;;11.53;4.70;;;14.10;99.90;;;;;;5049188;28;20432;-73
2023/10/07 08:21:39;;;;;;;6.60;3.60;;;14.30;99.90;;;;;;5050667;28;20676;-74
2023/10/07 08:24:06;;;;;;;8.73;3.93;;;14.70;99.90;;;;;;5050402;28;20708;-73
2023/10/07 08:26:34;;;;;;;5.17;3.33;;;14.90;99.90;;;;;;5050366;28;20469;-73
2023/10/07 08:29:00;;;;;;;10.27;3.20;;;15.30;99.90;;;;;;5050584;28;20430;-74
2023/10/07 08:31:43;;;;;;;6.03;3.00;;;15.70;98.40;;;;;;5050303;28;20947;-75
2023/10/07 08:36:42;;;;;;;6.53;3.30;;;16.10;92.90;;;;;;5050724;28;20438;-75
2023/10/07 08:39:17;;;;;;;6.47;3.60;;;16.60;93.50;;;;;;5050670;28;20228;-75
2023/10/07 08:41:50;;;;;;;6.43;3.00;;;16.90;92.60;;;;;;5050707;28;20437;-73
2023/10/07 08:44:16;;;;;;;6.83;3.77;;;17.20;90.40;;;;;;5050453;28;20469;-73
2023/10/07 08:46:52;;;;;;;6.17;3.10;;;17.40;87.50;;;;;;5050160;28;21017;-74
2023/10/07 08:49:27;;;;;;;7.40;3.20;;;17.70;88.00;;;;;;5048912;28;20432;-74
2023/10/07 08:51:56;;;;;;;6.50;3.20;;;17.90;86.20;;;;;;5050294;28;20419;-74
2023/10/07 08:54:26;;;;;;;10.67;3.37;;;18.10;81.50;;;;;;5049929;28;20550;-73
2023/10/07 08:56:55;;;;;;;10.37;3.60;;;18.50;83.90;;;;;;5049187;28;20569;-73
2023/10/07 08:59:26;;;;;;;8.33;4.30;;;18.90;84.10;;;;;;5048497;28;20465;-73
2023/10/07 09:02:00;;;;;;;6.97;3.20;;;19.20;81.70;;;;;;5049725;28;20444;-73
2023/10/07 09:04:33;;;;;;;10.00;4.07;;;19.50;81.60;;;;;;5032989;28;20423;-74
2023/10/07 09:07:00;;;;;;;6.03;3.60;;;19.30;79.20;;;;;;5049949;28;20449;-75
2023/10/07 09:09:39;;;;;;;8.23;4.00;;;19.30;80.90;;;;;;5050251;28;20417;-75
2023/10/07 09:12:15;;;;;;;5.60;3.17;;;19.40;81.30;;;;;;5049907;28;20413;-74
2023/10/07 09:14:57;;;;;;;6.57;3.30;;;19.60;81.10;;;;;;5049614;28;20465;-74
2023/10/07 09:17:26;;;;;;;9.50;4.00;;;19.60;80.00;;;;;;5049838;28;20406;-73
2023/10/07 09:19:53;;;;;;;8.10;3.53;;;20.60;83.40;;;;;;5049595;28;20500;-72
2023/10/07 09:22:33;;;;;;;6.83;4.00;;;20.90;81.60;;;;;;5049688;28;20427;-75
2023/10/07 09:25:17;;;;;;;10.77;4.37;;;21.60;79.60;;;;;;5048293;28;20531;-72
2023/10/07 09:27:54;;;;;;;9.90;3.73;;;22.40;81.30;;;;;;5049757;28;20899;-75
2023/10/07 09:30:44;;;;;;;10.87;3.90;;;22.70;80.30;;;;;;5033301;28;21007;-75
2023/10/07 09:33:17;;;;;;;7.90;3.80;;;22.90;90.00;;;;;;5048521;28;20537;-76
2023/10/07 09:43:37;;;;;;;9.03;4.20;;;22.00;76.30;;;;;;5050083;28;20187;-74
2023/10/07 09:46:03;;;;;;;11.00;4.53;;;21.50;77.40;;;;;;5048878;28;20446;-75
2023/10/07 09:48:33;;;;;;;11.70;3.73;;;21.30;76.00;;;;;;5048849;28;20422;-74
2023/10/07 09:51:00;;;;;;;5.80;4.30;;;20.90;76.20;;;;;;5048881;28;20425;-75
2023/10/07 09:53:51;;;;;;;11.70;4.00;;;20.60;77.40;;;;;;5050076;28;20443;-74
2023/10/07 09:56:43;;;;;;;9.40;5.20;;;20.50;75.80;;;;;;5050168;28;20424;-74
2023/10/07 09:59:51;;;;;;;10.93;4.30;;;20.40;76.80;;;;;;5050453;28;20816;-74
2023/10/07 10:02:51;;;;;;;8.60;3.70;;;20.30;78.60;;;;;;5047695;28;20440;-75
2023/10/07 10:05:44;;;;;;;7.70;3.60;;;20.30;79.80;;;;;;5050430;28;20441;-74
2023/10/07 10:08:59;;;;;;;8.60;4.13;;;20.30;77.20;;;;;;5050206;28;20421;-75
2023/10/07 10:16:45;;;;;;;9.50;3.50;;;20.00;79.00;;;;;;5049661;28;20426;-74
2023/10/07 10:19:23;;;;;;;9.73;3.87;;;19.90;79.70;;;;;;5049260;28;20415;-74
2023/10/07 10:21:51;;;;;;;8.60;4.23;;;19.90;78.30;;;;;;5049107;28;20421;-75
2023/10/07 10:24:22;;;;;;;7.83;3.60;;;19.80;78.60;;;;;;5049120;28;20425;-74
2023/10/07 10:26:50;;;;;;;7.63;3.80;;;19.70;78.00;;;;;;5047847;28;20421;-74
2023/10/07 10:29:25;;;;;;;7.17;3.80;;;19.70;78.00;;;;;;5049170;28;20414;-74
2023/10/07 10:31:52;;;;;;;6.33;3.63;;;19.70;77.90;;;;;;5047708;28;20446;-74
2023/10/07 10:34:20;;;;;;;9.60;3.77;;;19.80;82.60;;;;;;5047409;28;20487;-74
2023/10/07 10:36:49;;;;;;;11.70;4.10;;;19.80;83.20;;;;;;5048121;28;20440;-74
2023/10/07 10:39:22;;;;;;;7.50;4.50;;;19.90;81.10;;;;;;5048340;28;20498;-74
2023/10/07 10:41:48;;;;;;;12.07;3.60;;;19.80;79.30;;;;;;5046973;28;20407;-74
2023/10/07 10:44:16;;;;;;;8.67;3.50;;;20.00;78.80;;;;;;5047020;28;20834;-74
2023/10/07 10:46:46;;;;;;;6.70;3.57;;;20.10;77.00;;;;;;5048489;28;20534;-73
2023/10/07 10:49:16;;;;;;;4.67;3.33;;;20.50;79.90;;;;;;5047259;28;21093;-74
2023/10/07 10:51:48;;;;;;;7.80;3.80;;;20.60;78.40;;;;;;5048597;28;20425;-73
2023/10/07 10:54:15;;;;;;;5.20;2.93;;;20.80;76.60;;;;;;5048654;28;20464;-72
2023/10/07 10:56:59;;;;;;;9.17;3.83;;;20.90;75.00;;;;;;5048384;28;20967;-73
2023/10/07 10:59:53;;;;;;;10.70;3.80;;;21.00;74.40;;;;;;5048594;28;20407;-74
2023/10/07 11:02:22;;;;;;;6.40;3.77;;;21.00;72.70;;;;;;5047028;28;20983;-73
2023/10/07 11:04:54;;;;;;;9.33;4.43;;;21.00;72.50;;;;;;5047137;28;20460;-73
2023/10/07 11:07:21;;;;;;;10.33;4.70;;;21.00;74.00;;;;;;5048702;28;20501;-74
2023/10/07 11:09:50;;;;;;;5.90;3.17;;;21.20;77.20;;;;;;5048561;28;20419;-73
2023/10/07 11:12:18;;;;;;;15.97;3.90;;;21.30;73.10;;;;;;5047171;28;20426;-73
2023/10/07 11:14:48;;;;;;;10.67;3.83;;;21.40;75.30;;;;;;5048520;28;20500;-73
2023/10/07 11:17:15;;;;;;;6.90;3.87;;;21.30;74.80;;;;;;5048755;28;20410;-73
2023/10/07 11:19:42;;;;;;;7.80;4.27;;;21.40;75.60;;;;;;5048564;28;20433;-73
2023/10/07 11:22:19;;;;;;;7.73;4.17;;;21.30;75.60;;;;;;5053256;28;20500;-73
2023/10/07 11:24:48;;;;;;;6.87;3.93;;;21.40;73.80;;;;;;5054589;28;20922;-73
2023/10/07 11:27:14;;;;;;;8.77;3.40;;;21.40;74.70;;;;;;5054315;28;20422;-72
2023/10/07 11:29:40;;;;;;;5.93;3.63;;;21.40;75.60;;;;;;5054198;28;20430;-72
2023/10/07 11:32:07;;;;;;;7.53;3.73;;;21.30;73.80;;;;;;5053767;28;20424;-74
2023/10/07 11:34:45;;;;;;;8.90;3.80;;;21.30;73.80;;;;;;5051980;28;20734;-73
2023/10/07 11:37:19;;;;;;;7.50;3.33;;;21.20;74.80;;;;;;5053526;28;20445;-72
2023/10/07 11:39:45;;;;;;;7.80;3.63;;;21.20;74.30;;;;;;5053872;28;20463;-73
2023/10/07 11:42:21;;;;;;;14.63;3.20;;;21.20;79.10;;;;;;5053643;28;20426;-73
2023/10/07 11:44:54;;;;;;;12.13;3.80;;;21.30;70.10;;;;;;5053598;28;20472;-73
2023/10/07 11:47:21;;;;;;;6.20;3.40;;;21.40;73.70;;;;;;5053579;28;20423;-73
2023/10/07 11:49:47;;;;;;;5.27;3.90;;;21.30;71.20;;;;;;5054280;28;20421;-73
2023/10/07 11:52:14;;;;;;;6.57;3.47;;;21.40;74.70;;;;;;5053611;28;20540;-73
2023/10/07 11:54:40;;;;;;;9.53;3.30;;;21.70;73.50;;;;;;5051566;28;21100;-74
2023/10/07 11:57:06;;;;;;;6.20;3.47;;;21.70;73.60;;;;;;5051716;28;20542;-74
2023/10/07 11:59:40;;;;;;;5.10;3.10;;;21.60;71.50;;;;;;5052231;28;20206;-74
2023/10/07 12:02:09;;;;;;;6.67;3.00;;;21.50;68.90;;;;;;5053928;28;20467;-74
2023/10/07 12:04:39;;;;;;;10.20;3.57;;;21.40;66.60;;;;;;5053795;28;20429;-73
2023/10/07 12:07:07;;;;;;;7.60;3.23;;;21.20;69.20;;;;;;5053597;28;20533;-73
2023/10/07 12:09:34;;;;;;;7.43;4.03;;;21.10;68.80;;;;;;5053810;28;20431;-72
2023/10/07 12:12:02;;;;;;;10.70;3.40;;;20.90;68.00;;;;;;5053721;28;20950;-73
2023/10/07 12:14:28;;;;;;;7.47;3.70;;;20.80;66.20;;;;;;5052246;28;20976;-73
2023/10/07 12:16:55;;;;;;;5.80;3.33;;;20.70;69.90;;;;;;5052571;28;20441;-73
2023/10/07 12:19:21;;;;;;;6.80;3.80;;;20.60;67.00;;;;;;5053743;28;20961;-73
2023/10/07 12:21:50;;;;;;;5.10;3.30;;;20.60;64.80;;;;;;5053302;28;20433;-74
2023/10/07 12:24:20;;;;;;;4.90;2.67;;;20.70;65.90;;;;;;5051954;28;20939;-74
2023/10/07 12:26:51;;;;;;;5.97;3.27;;;20.80;70.90;;;;;;5053104;28;20456;-74
2023/10/07 12:29:18;;;;;;;7.43;3.07;;;20.80;67.30;;;;;;5053092;28;20508;-74
2023/10/07 12:31:45;;;;;;;9.00;3.50;;;20.90;65.30;;;;;;5050539;28;21105;-74
2023/10/07 12:34:16;;;;;;;6.73;2.50;;;20.90;62.90;;;;;;5049975;28;20519;-74
2023/10/07 12:36:42;;;;;;;5.83;2.87;;;21.00;63.60;;;;;;5050224;28;20441;-74
2023/10/07 12:39:11;;;;;;;6.60;2.43;;;21.00;66.30;;;;;;5050057;28;20829;-73
2023/10/07 12:41:41;;;;;;;9.40;3.33;;;21.00;68.10;;;;;;5049592;28;20462;-74
2023/10/07 12:44:10;;;;;;;5.33;3.10;;;20.90;68.30;;;;;;5049335;28;20537;-73
2023/10/07 12:46:40;;;;;;;6.73;3.40;;;20.90;69.70;;;;;;5049553;28;20499;-74
2023/10/07 12:49:10;;;;;;;4.73;2.80;;;20.80;64.50;;;;;;5048100;28;20435;-73
2023/10/07 12:51:41;;;;;;;9.63;3.37;;;20.80;67.60;;;;;;5049209;28;20429;-73
2023/10/07 12:54:10;;;;;;;8.57;3.50;;;20.70;67.20;;;;;;5049084;28;20582;-73
2023/10/07 12:56:36;;;;;;;4.40;3.00;;;20.70;66.80;;;;;;5049165;28;20524;-73
2023/10/07 12:59:24;;;;;;;7.37;3.20;;;20.70;68.10;;;;;;5049403;28;20457;-73
2023/10/07 13:01:59;;;;;;;6.93;3.93;;;20.70;67.60;;;;;;5049866;28;21158;-74
2023/10/07 13:04:34;;;;;;;6.00;3.00;;;20.70;69.50;;;;;;5049746;28;20418;-74
2023/10/07 13:07:05;;;;;;;5.40;3.00;;;20.60;68.30;;;;;;5049510;28;20422;-73
2023/10/07 13:09:30;;;;;;;5.37;3.20;;;20.60;66.70;;;;;;5049070;28;20419;-74
2023/10/07 13:11:58;;;;;;;8.80;3.33;;;20.60;67.50;;;;;;5049815;28;20414;-74
2023/10/07 13:14:27;;;;;;;6.63;3.50;;;20.60;68.70;;;;;;5049182;28;20218;-74
2023/10/07 13:16:56;;;;;;;5.27;3.03;;;20.70;68.60;;;;;;5048875;28;20419;-73
2023/10/07 13:19:26;;;;;;;6.40;3.43;;;20.70;71.70;;;;;;5048763;28;20418;-74
2023/10/07 13:22:02;;;;;;;7.90;3.23;;;20.70;66.90;;;;;;5049225;28;20471;-73
2023/10/07 13:24:31;;;;;;;4.13;2.80;;;20.70;70.10;;;;;;5047667;28;20422;-73
2023/10/07 13:26:56;;;;;;;9.03;3.47;;;20.80;66.00;;;;;;5049386;28;20431;-73
2023/10/07 13:29:23;;;;;;;7.37;3.57;;;20.80;62.90;;;;;;5049252;28;20456;-74
2023/10/07 13:31:48;;;;;;;5.30;2.97;;;20.80;65.90;;;;;;5048801;28;20662;-73
2023/10/07 13:34:16;;;;;;;9.83;3.57;;;20.80;63.20;;;;;;5048792;28;20469;-74
2023/10/07 13:36:43;;;;;;;5.90;3.23;;;20.80;69.80;;;;;;5046836;28;20766;-73
2023/10/07 13:39:15;;;;;;;4.03;2.87;;;20.80;64.80;;;;;;5049008;28;20497;-73
2023/10/07 13:41:46;;;;;;;5.50;3.27;;;20.70;65.10;;;;;;5049134;28;20406;-73
2023/10/07 13:44:12;;;;;;;5.03;3.50;;;20.70;70.10;;;;;;5048764;28;20427;-73
2023/10/07 13:46:38;;;;;;;7.80;3.57;;;20.70;68.20;;;;;;5048907;28;20449;-73
2023/10/07 13:49:08;;;;;;;7.33;3.57;;;20.70;67.60;;;;;;5047679;28;20434;-72
2023/10/07 13:51:41;;;;;;;9.83;3.27;;;20.70;68.60;;;;;;5048995;28;20186;-73
2023/10/07 13:54:26;;;;;;;5.67;3.27;;;20.60;73.70;;;;;;5049064;28;21054;-74
2023/10/07 13:56:56;;;;;;;6.33;3.20;;;20.50;70.30;;;;;;5049207;28;20880;-74